Wabasha, Minnesota
Current Conditions -  °F | °C
As of 2:51 PM on Tuesday 27 Jan 2015 (Local Time) from KRGK Reporting Station
Overcast Overcast  
Wind Chill: 27°   Ceiling: 2000
Heat Index: 32°   Visibility: 10mi
Dew Point: 23°   Wind: 5mph
Humidity: 69%   Direction: 140°SE
Pressure: 30.18"   Gusts: NA
Location:  44.38°N, 92.04°W
Report Text: KRGK 272051Z AUTO 14004KT 10SM OVC020 00/M05 A3018 RMK AO2
Loading
Personal Weather Stations






























Interactive Weather Map New forecast layout! Learn more

10-Day Weather Forecast

Advertisements
Track Severe Weather on mobile